Garupa, Argentina
Current Conditions -  °F | °C
As of 2:00 PM on Saturday 22 Nov 2014 (Local Time) from SARP Reporting Station
Few Clouds Few Clouds  
Wind Chill: 25°   Ceiling: Unl
Heat Index: 26°   Visibility: 6mi
Dew Point: 14°   Wind: 6mph
Humidity: 50%   Direction: 140°SE
Pressure: 29.97"   Gusts: NA
Location:  27.48°S, 55.83°W
Report Text: SARP 221700Z 14005KT 9999 FEW035 25/14 Q1015
Loading
Personal Weather Stations






























Interactive Weather Map New forecast layout! Learn more

10-Day Weather Forecast

Advertisements
Track Severe Weather on mobile